LICD Airport Information

Runway Information
Runway 08 Length 5906 ft width 148 ft
Elevation 48 ft Threshold 0 ft Heading 81
Runway 26 Length 5906 ft Width 148 ft
Elevation 70 ft Threshold 0 ft Heading 261
Airport Frequencies
Type AFIS Name INFO Frequency 122.1 MHZ
Airport Navaids
Type VOR-DME Name Lampedusa Frequency 108600 KHZ
Type NDB Name Lampedusa Frequency 373 KHZ
Airport Weather Information & NOTAM
ADDS - METARS form results

(2044 UTC 20 April 2019)
Data provider http://aviationweather.gov/metar/data/
 
METAR text: LICD 201951Z AUTO 10027G37KT 7000 FEW190/// 16/14 Q1015
Conditions at: LICD (LAMPEDUSA ISLAND, IT) observed 1951 UTC 20 April 2019
Temperature: 16.0°C (61°F)
Dewpoint: 14.0°C (57°F) [RH = 88%]
Pressure (altimeter): 29.97 inches Hg (1015.0 mb)
Winds: from the E (100 degrees) at 31 MPH (27 knots; 13.9 m/s)
gusting to 43 MPH (37 knots; 19.0 m/s)
Visibility: 4 miles ( 7 km)
Ceiling: at least 12,000 feet AGL
Clouds: few clouds at 19000 feet AGL
Weather: no significant weather observed at this time

METAR text: LICD 201950Z 10027KT CAVOK 16/14 Q1015
Conditions at: LICD (LAMPEDUSA ISLAND, IT) observed 1950 UTC 20 April 2019
Temperature: 16.0°C (61°F)
Dewpoint: 14.0°C (57°F) [RH = 88%]
Pressure (altimeter): 29.97 inches Hg (1015.0 mb)
Winds: from the E (100 degrees) at 31 MPH (27 knots; 13.9 m/s)
Visibility: 6 or more miles (10+ km)
Ceiling: ceiling and visibility are OK
Clouds: unknown
Weather: no significant weather observed at this time

Forecast for: LICD (LAMPEDUSA ISLAND, IT)
Text: TAF LICD 201700Z 2018/2118 12024KT CAVOK
Forecast period: 1800 UTC 20 April 2019 to 0600 UTC 21 April 2019
Forecast type: FROM: standard forecast or significant change
Winds: from the ESE (120 degrees) at 28 MPH (24 knots; 12.3 m/s)
Visibility: 6 or more miles 10+ km)
Ceiling: unknown
Clouds: missing
Weather: NSW  (no significant weather)
Text: BECMG 2106/2108 12024G34KT
Forecast period: 0600 to 1800 UTC 21 April 2019
Forecast type: BECOMING: Conditions expected to become as follows by 0800 UTC 21 April 2019
Winds: from the ESE (120 degrees) at 28 MPH (24 knots; 12.3 m/s)
gusting to 39 MPH (34 knots; 17.5 m/s)
Visibility: 6 or more miles 10+ km)
Ceiling: unknown
Clouds: missing
Weather: NSW  (no significant weather)